sensor_id;sensor_type;location;lat;lon;timestamp;P1;durP1;ratioP1;P2;durP2;ratioP2
57303;SDS011;43150;50.986;18.208;2022-11-18T00:09:20;6.70;;;6.00;;
57303;SDS011;43150;50.986;18.208;2022-11-18T00:19:22;11.60;;;5.90;;
57303;SDS011;43150;50.986;18.208;2022-11-18T00:26:39;11.90;;;8.10;;
57303;SDS011;43150;50.986;18.208;2022-11-18T00:36:21;7.60;;;6.90;;
57303;SDS011;43150;50.986;18.208;2022-11-18T00:46:06;5.50;;;5.00;;
57303;SDS011;43150;50.986;18.208;2022-11-18T00:55:48;5.60;;;5.00;;
57303;SDS011;43150;50.986;18.208;2022-11-18T01:05:31;10.60;;;5.10;;
57303;SDS011;43150;50.986;18.208;2022-11-18T01:15:42;7.80;;;6.80;;
57303;SDS011;43150;50.986;18.208;2022-11-18T01:32:41;6.70;;;5.10;;
57303;SDS011;43150;50.986;18.208;2022-11-18T01:42:27;8.50;;;7.30;;
57303;SDS011;43150;50.986;18.208;2022-11-18T01:52:09;6.70;;;5.70;;
57303;SDS011;43150;50.986;18.208;2022-11-18T02:01:53;4.50;;;4.10;;
57303;SDS011;43150;50.986;18.208;2022-11-18T02:11:35;19.10;;;7.20;;
57303;SDS011;43150;50.986;18.208;2022-11-18T02:41:29;4.30;;;3.40;;
57303;SDS011;43150;50.986;18.208;2022-11-18T02:51:12;9.60;;;5.90;;
57303;SDS011;43150;50.986;18.208;2022-11-18T03:01:01;8.70;;;7.80;;
57303;SDS011;43150;50.986;18.208;2022-11-18T03:10:58;7.70;;;6.70;;
57303;SDS011;43150;50.986;18.208;2022-11-18T03:20:46;11.70;;;10.50;;
57303;SDS011;43150;50.986;18.208;2022-11-18T03:30:29;9.70;;;6.50;;
57303;SDS011;43150;50.986;18.208;2022-11-18T03:40:19;11.80;;;6.70;;
57303;SDS011;43150;50.986;18.208;2022-11-18T04:04:35;13.60;;;8.40;;
57303;SDS011;43150;50.986;18.208;2022-11-18T04:14:36;12.80;;;10.90;;
57303;SDS011;43150;50.986;18.208;2022-11-18T04:24:20;12.50;;;6.80;;
57303;SDS011;43150;50.986;18.208;2022-11-18T04:34:02;10.80;;;8.10;;
57303;SDS011;43150;50.986;18.208;2022-11-18T04:43:44;10.30;;;7.80;;
57303;SDS011;43150;50.986;18.208;2022-11-18T04:53:25;15.10;;;11.10;;
57303;SDS011;43150;50.986;18.208;2022-11-18T05:03:07;13.40;;;8.60;;
57303;SDS011;43150;50.986;18.208;2022-11-18T05:12:49;9.80;;;7.10;;
57303;SDS011;43150;50.986;18.208;2022-11-18T05:22:31;16.60;;;11.20;;
57303;SDS011;43150;50.986;18.208;2022-11-18T05:32:12;12.90;;;8.40;;
57303;SDS011;43150;50.986;18.208;2022-11-18T05:41:53;15.00;;;10.30;;
57303;SDS011;43150;50.986;18.208;2022-11-18T05:51:56;20.80;;;11.90;;
57303;SDS011;43150;50.986;18.208;2022-11-18T06:01:44;21.90;;;11.10;;
57303;SDS011;43150;50.986;18.208;2022-11-18T06:11:26;19.90;;;13.20;;
57303;SDS011;43150;50.986;18.208;2022-11-18T06:21:08;25.20;;;17.70;;
57303;SDS011;43150;50.986;18.208;2022-11-18T06:30:50;23.30;;;15.20;;
57303;SDS011;43150;50.986;18.208;2022-11-18T06:48:26;16.00;;;11.40;;
57303;SDS011;43150;50.986;18.208;2022-11-18T06:58:08;24.40;;;16.10;;
57303;SDS011;43150;50.986;18.208;2022-11-18T07:07:52;20.40;;;15.00;;
57303;SDS011;43150;50.986;18.208;2022-11-18T07:17:34;8.00;;;7.20;;
57303;SDS011;43150;50.986;18.208;2022-11-18T07:27:16;17.40;;;13.60;;
57303;SDS011;43150;50.986;18.208;2022-11-18T07:36:57;17.70;;;13.70;;
57303;SDS011;43150;50.986;18.208;2022-11-18T07:46:41;17.90;;;11.50;;
57303;SDS011;43150;50.986;18.208;2022-11-18T07:56:25;16.90;;;11.80;;
57303;SDS011;43150;50.986;18.208;2022-11-18T08:06:11;17.00;;;10.20;;
57303;SDS011;43150;50.986;18.208;2022-11-18T08:15:55;15.60;;;12.20;;
57303;SDS011;43150;50.986;18.208;2022-11-18T08:25:39;13.70;;;11.10;;
57303;SDS011;43150;50.986;18.208;2022-11-18T08:35:22;10.80;;;8.50;;
57303;SDS011;43150;50.986;18.208;2022-11-18T08:45:04;12.70;;;9.40;;
57303;SDS011;43150;50.986;18.208;2022-11-18T08:54:49;12.30;;;9.30;;
57303;SDS011;43150;50.986;18.208;2022-11-18T09:04:33;11.60;;;10.00;;
57303;SDS011;43150;50.986;18.208;2022-11-18T09:14:15;19.60;;;15.80;;
57303;SDS011;43150;50.986;18.208;2022-11-18T09:24:01;9.50;;;8.50;;
57303;SDS011;43150;50.986;18.208;2022-11-18T09:33:45;13.60;;;10.20;;
57303;SDS011;43150;50.986;18.208;2022-11-18T09:43:31;14.50;;;9.20;;
57303;SDS011;43150;50.986;18.208;2022-11-18T09:53:34;10.90;;;9.40;;
57303;SDS011;43150;50.986;18.208;2022-11-18T10:13:02;15.00;;;12.60;;
57303;SDS011;43150;50.986;18.208;2022-11-18T10:22:48;13.10;;;9.50;;
57303;SDS011;43150;50.986;18.208;2022-11-18T10:25:16;13.10;;;9.40;;
57303;SDS011;43150;50.986;18.208;2022-11-18T10:35:00;15.80;;;12.70;;
57303;SDS011;43150;50.986;18.208;2022-11-18T10:44:42;10.60;;;9.10;;
57303;SDS011;43150;50.986;18.208;2022-11-18T11:01:40;16.80;;;11.50;;
57303;SDS011;43150;50.986;18.208;2022-11-18T11:11:26;18.30;;;13.80;;
57303;SDS011;43150;50.986;18.208;2022-11-18T11:31:05;23.70;;;18.20;;
57303;SDS011;43150;50.986;18.208;2022-11-18T11:41:01;15.40;;;13.90;;
57303;SDS011;43150;50.986;18.208;2022-11-18T11:50:51;17.20;;;12.30;;
57303;SDS011;43150;50.986;18.208;2022-11-18T12:00:35;26.80;;;13.90;;
57303;SDS011;43150;50.986;18.208;2022-11-18T12:57:23;29.70;;;15.40;;
57303;SDS011;43150;50.986;18.208;2022-11-18T13:07:10;20.70;;;13.40;;
57303;SDS011;43150;50.986;18.208;2022-11-18T13:38:00;9.90;;;8.00;;
57303;SDS011;43150;50.986;18.208;2022-11-18T13:48:06;11.10;;;10.00;;
57303;SDS011;43150;50.986;18.208;2022-11-18T13:57:48;13.90;;;9.30;;
57303;SDS011;43150;50.986;18.208;2022-11-18T14:07:35;9.70;;;6.10;;
57303;SDS011;43150;50.986;18.208;2022-11-18T14:17:25;4.50;;;4.10;;
57303;SDS011;43150;50.986;18.208;2022-11-18T14:37:59;7.20;;;5.10;;
57303;SDS011;43150;50.986;18.208;2022-11-18T14:47:41;5.90;;;4.80;;
57303;SDS011;43150;50.986;18.208;2022-11-18T14:57:22;5.70;;;3.90;;
57303;SDS011;43150;50.986;18.208;2022-11-18T15:07:10;5.40;;;4.30;;
57303;SDS011;43150;50.986;18.208;2022-11-18T15:16:54;4.30;;;2.80;;
57303;SDS011;43150;50.986;18.208;2022-11-18T15:26:41;6.10;;;2.70;;
57303;SDS011;43150;50.986;18.208;2022-11-18T15:36:26;5.40;;;4.00;;
57303;SDS011;43150;50.986;18.208;2022-11-18T15:46:12;7.60;;;4.30;;
57303;SDS011;43150;50.986;18.208;2022-11-18T15:56:13;3.60;;;2.90;;
57303;SDS011;43150;50.986;18.208;2022-11-18T16:05:55;3.80;;;3.40;;
57303;SDS011;43150;50.986;18.208;2022-11-18T16:15:56;6.20;;;4.70;;
57303;SDS011;43150;50.986;18.208;2022-11-18T16:25:42;7.60;;;5.10;;
57303;SDS011;43150;50.986;18.208;2022-11-18T16:36:00;13.40;;;7.80;;
57303;SDS011;43150;50.986;18.208;2022-11-18T16:45:48;17.60;;;7.80;;
57303;SDS011;43150;50.986;18.208;2022-11-18T16:55:31;14.50;;;8.40;;
57303;SDS011;43150;50.986;18.208;2022-11-18T17:05:12;11.60;;;7.60;;
57303;SDS011;43150;50.986;18.208;2022-11-18T17:14:54;8.60;;;5.80;;
57303;SDS011;43150;50.986;18.208;2022-11-18T17:24:36;12.70;;;7.00;;
57303;SDS011;43150;50.986;18.208;2022-11-18T17:34:19;27.20;;;11.40;;
57303;SDS011;43150;50.986;18.208;2022-11-18T17:44:22;23.80;;;11.50;;
57303;SDS011;43150;50.986;18.208;2022-11-18T17:54:05;12.70;;;7.30;;
57303;SDS011;43150;50.986;18.208;2022-11-18T18:03:47;14.40;;;6.90;;
57303;SDS011;43150;50.986;18.208;2022-11-18T18:13:31;14.70;;;9.60;;
57303;SDS011;43150;50.986;18.208;2022-11-18T18:23:46;20.60;;;12.20;;
57303;SDS011;43150;50.986;18.208;2022-11-18T18:33:32;18.70;;;11.80;;
57303;SDS011;43150;50.986;18.208;2022-11-18T18:43:14;10.40;;;8.10;;
57303;SDS011;43150;50.986;18.208;2022-11-18T18:53:14;29.90;;;17.80;;
57303;SDS011;43150;50.986;18.208;2022-11-18T19:02:56;28.70;;;18.20;;
57303;SDS011;43150;50.986;18.208;2022-11-18T19:12:37;32.30;;;21.20;;
57303;SDS011;43150;50.986;18.208;2022-11-18T19:22:53;25.60;;;15.40;;
57303;SDS011;43150;50.986;18.208;2022-11-18T19:32:36;21.20;;;15.70;;
57303;SDS011;43150;50.986;18.208;2022-11-18T19:42:18;27.60;;;15.70;;
57303;SDS011;43150;50.986;18.208;2022-11-18T19:52:02;24.10;;;14.90;;
57303;SDS011;43150;50.986;18.208;2022-11-18T20:01:47;28.40;;;18.20;;
57303;SDS011;43150;50.986;18.208;2022-11-18T20:11:29;25.00;;;14.30;;
57303;SDS011;43150;50.986;18.208;2022-11-18T20:21:14;21.60;;;15.70;;
57303;SDS011;43150;50.986;18.208;2022-11-18T20:31:00;26.30;;;16.20;;
57303;SDS011;43150;50.986;18.208;2022-11-18T20:40:42;16.00;;;10.70;;
57303;SDS011;43150;50.986;18.208;2022-11-18T20:50:27;16.40;;;12.50;;
57303;SDS011;43150;50.986;18.208;2022-11-18T21:00:10;20.50;;;11.70;;
57303;SDS011;43150;50.986;18.208;2022-11-18T21:17:14;16.20;;;8.60;;
57303;SDS011;43150;50.986;18.208;2022-11-18T21:26:56;13.60;;;11.00;;
57303;SDS011;43150;50.986;18.208;2022-11-18T21:36:40;19.00;;;9.20;;
57303;SDS011;43150;50.986;18.208;2022-11-18T21:46:21;12.30;;;9.10;;
57303;SDS011;43150;50.986;18.208;2022-11-18T21:56:15;17.90;;;11.10;;
57303;SDS011;43150;50.986;18.208;2022-11-18T22:06:00;20.00;;;10.00;;
57303;SDS011;43150;50.986;18.208;2022-11-18T22:15:56;19.90;;;13.40;;
57303;SDS011;43150;50.986;18.208;2022-11-18T22:25:38;14.70;;;5.90;;
57303;SDS011;43150;50.986;18.208;2022-11-18T22:35:20;14.90;;;9.80;;
57303;SDS011;43150;50.986;18.208;2022-11-18T22:45:14;15.20;;;9.50;;
57303;SDS011;43150;50.986;18.208;2022-11-18T22:54:57;15.20;;;10.90;;
57303;SDS011;43150;50.986;18.208;2022-11-18T23:11:55;28.30;;;14.10;;
57303;SDS011;43150;50.986;18.208;2022-11-18T23:21:55;24.80;;;14.00;;
57303;SDS011;43150;50.986;18.208;2022-11-18T23:31:38;17.30;;;14.70;;
57303;SDS011;43150;50.986;18.208;2022-11-18T23:41:21;13.20;;;10.80;;
57303;SDS011;43150;50.986;18.208;2022-11-18T23:51:10;13.50;;;9.20;;
